Time;durP1;ratioP1;P1;durP2;ratioP2;P2;SDS_P1;SDS_P2;PMS_P1;PMS_P2;Temp;Humidity;BMP_temperature;BMP_pressure;BME280_temperature;BME280_humidity;BME280_pressure;Samples;Min_cycle;Max_cycle;Signal;HPM_P1;HPM_P2
2023/03/11 00:00:22;;;;;;;16.67;12.02;;;;;;;3.62;86.29;99138.78;5031276;28;20053;-60
2023/03/11 00:02:53;;;;;;;12.35;10.20;;;;;;;3.63;85.31;99147.84;5028908;28;20057;-60
2023/03/11 00:05:26;;;;;;;14.98;11.40;;;;;;;3.63;85.16;99148.69;5029669;28;20057;-60
2023/03/11 00:07:54;;;;;;;15.15;11.32;;;;;;;3.60;85.81;99157.53;5029059;28;20053;-60
2023/03/11 00:10:25;;;;;;;11.82;8.85;;;;;;;3.64;86.27;99160.50;5029995;28;20476;-60
2023/03/11 00:12:54;;;;;;;11.65;8.48;;;;;;;3.60;85.68;99171.31;5029387;28;20060;-60
2023/03/11 00:15:21;;;;;;;13.10;9.40;;;;;;;3.63;85.08;99167.13;5029490;28;20080;-60
2023/03/11 00:17:49;;;;;;;11.57;8.90;;;;;;;3.63;85.03;99184.47;5028827;28;20062;-60
2023/03/11 00:20:19;;;;;;;13.18;10.05;;;;;;;3.66;85.24;99188.56;5029762;28;20409;-61
2023/03/11 00:22:47;;;;;;;11.68;9.05;;;;;;;3.64;85.38;99188.84;5029454;28;20076;-60
2023/03/11 00:25:15;;;;;;;11.82;8.93;;;;;;;3.61;85.46;99194.13;5030027;28;20489;-60
2023/03/11 00:27:42;;;;;;;11.73;8.82;;;;;;;3.60;85.34;99201.59;5029713;28;20475;-61
2023/03/11 00:30:12;;;;;;;12.27;7.95;;;;;;;3.63;85.15;99200.16;5029939;28;20053;-60
2023/03/11 00:32:42;;;;;;;10.05;7.32;;;;;;;3.63;85.05;99203.75;5029391;28;20069;-61
2023/03/11 00:35:12;;;;;;;10.07;7.63;;;;;;;3.57;85.26;99209.63;5030191;28;20061;-60
2023/03/11 00:37:39;;;;;;;10.95;8.20;;;;;;;3.59;85.59;99219.25;5029819;28;20060;-60
2023/03/11 00:40:12;;;;;;;9.85;7.82;;;;;;;3.58;85.42;99223.09;5029733;28;20435;-60
2023/03/11 00:42:39;;;;;;;9.82;6.57;;;;;;;3.54;84.49;99224.81;5029559;28;20057;-60
2023/03/11 00:45:07;;;;;;;12.35;8.98;;;;;;;3.55;84.43;99233.88;5029550;28;20054;-60
2023/03/11 00:47:36;;;;;;;10.68;7.70;;;;;;;3.52;85.09;99238.06;5028384;28;20423;-60
2023/03/11 00:50:05;;;;;;;9.77;6.70;;;;;;;3.45;83.78;99237.63;5012402;28;20518;-61
2023/03/11 00:52:32;;;;;;;9.43;7.15;;;;;;;3.49;83.96;99246.09;5009250;28;20157;-60
2023/03/11 00:55:00;;;;;;;9.07;6.10;;;;;;;3.51;84.25;99249.34;5018650;28;20061;-60
2023/03/11 00:57:28;;;;;;;10.30;7.13;;;;;;;3.55;85.48;99247.66;5030337;28;20060;-60
2023/03/11 00:59:55;;;;;;;7.20;5.22;;;;;;;3.49;84.91;99246.91;5029785;28;20060;-60
2023/03/11 01:02:22;;;;;;;7.03;5.65;;;;;;;3.46;83.37;99250.25;5029136;28;20049;-60
2023/03/11 01:04:55;;;;;;;9.43;6.47;;;;;;;3.52;83.52;99256.50;5028890;28;20057;-60
2023/03/11 01:07:22;;;;;;;8.77;6.40;;;;;;;3.52;84.27;99262.81;5028878;28;20068;-60
2023/03/11 01:09:50;;;;;;;10.02;6.75;;;;;;;3.53;83.59;99264.47;5030281;28;20057;-60
2023/03/11 01:12:17;;;;;;;9.65;6.90;;;;;;;3.57;85.23;99270.19;5027020;28;20045;-61
2023/03/11 01:14:46;;;;;;;7.22;5.18;;;;;;;3.52;84.19;99282.09;5029157;28;20050;-61
2023/03/11 01:17:13;;;;;;;9.00;6.55;;;;;;;3.46;84.52;99277.78;5028009;28;20057;-61
2023/03/11 01:19:41;;;;;;;10.32;6.95;;;;;;;3.53;84.23;99280.16;5029170;28;20501;-60
2023/03/11 01:22:16;;;;;;;11.55;6.65;;;;;;;3.50;83.64;99281.56;5029268;28;20127;-61
2023/03/11 01:24:44;;;;;;;8.73;6.38;;;;;;;3.54;83.72;99287.31;5029730;28;20080;-60
2023/03/11 01:27:11;;;;;;;12.35;8.07;;;;;;;3.53;85.12;99289.25;5033478;28;20058;-61
2023/03/11 01:29:38;;;;;;;14.07;7.57;;;;;;;3.49;83.42;99295.66;5032518;28;20057;-60
2023/03/11 01:32:06;;;;;;;9.60;6.68;;;;;;;3.43;83.74;99303.16;5031010;28;20057;-60
2023/03/11 01:34:35;;;;;;;12.98;6.85;;;;;;;3.49;83.36;99301.16;5032597;28;20475;-61
2023/03/11 01:37:04;;;;;;;13.35;7.35;;;;;;;3.48;84.32;99305.03;5032164;28;20060;-61
2023/03/11 01:39:33;;;;;;;11.02;6.50;;;;;;;3.53;84.27;99303.03;5032655;28;20054;-60
2023/03/11 01:42:00;;;;;;;10.50;6.85;;;;;;;3.56;84.28;99307.94;5032477;28;20053;-60
2023/03/11 01:44:27;;;;;;;9.70;7.55;;;;;;;3.56;84.45;99304.34;5032708;28;20484;-60
2023/03/11 01:47:35;;;;;;;10.23;6.95;;;;;;;3.56;84.77;99307.94;5031769;27;20049;-60
2023/03/11 01:50:05;;;;;;;11.63;5.53;;;;;;;3.58;84.51;99305.69;5032499;28;20068;-61
2023/03/11 01:52:33;;;;;;;10.77;5.70;;;;;;;3.54;83.71;99309.34;5031950;28;20075;-61
2023/03/11 01:55:01;;;;;;;10.65;6.40;;;;;;;3.57;83.90;99303.22;5032140;28;20061;-60
2023/03/11 01:57:29;;;;;;;9.65;6.35;;;;;;;3.60;84.78;99299.91;5033178;28;20065;-61
2023/03/11 02:00:00;;;;;;;8.80;5.47;;;;;;;3.58;83.13;99310.38;5032859;28;20058;-60
2023/03/11 02:02:31;;;;;;;10.82;5.40;;;;;;;3.61;83.59;99309.78;5031507;28;20411;-60
2023/03/11 02:05:01;;;;;;;7.32;5.18;;;;;;;3.65;83.94;99305.31;5031667;28;20057;-60
2023/03/11 02:07:28;;;;;;;8.50;5.63;;;;;;;3.63;83.92;99311.16;5031891;28;20050;-61
2023/03/11 02:09:56;;;;;;;9.25;4.80;;;;;;;3.62;84.20;99303.97;5031581;28;20049;-60
2023/03/11 02:12:25;;;;;;;7.05;4.80;;;;;;;3.64;84.18;99314.72;5031699;28;20396;-61
2023/03/11 02:14:53;;;;;;;8.23;4.20;;;;;;;3.57;83.84;99320.59;5031917;28;20064;-60
2023/03/11 02:17:21;;;;;;;8.07;4.82;;;;;;;3.57;82.66;99317.84;5030289;27;20068;-60
2023/03/11 02:20:06;;;;;;;8.48;5.60;;;;;;;3.63;82.59;99313.91;5031878;28;20064;-61
2023/03/11 02:22:34;;;;;;;11.98;6.97;;;;;;;3.62;83.21;99316.94;5031759;28;20448;-60
2023/03/11 02:25:05;;;;;;;10.63;6.50;;;;;;;3.60;83.01;99313.66;5030611;28;20049;-61
2023/03/11 02:27:38;;;;;;;10.10;6.47;;;;;;;3.60;83.83;99319.16;5030944;28;20072;-61
2023/03/11 02:30:07;;;;;;;10.38;7.03;;;;;;;3.59;82.85;99312.00;5031686;28;20049;-61
2023/03/11 02:32:34;;;;;;;11.45;6.80;;;;;;;3.58;84.05;99321.41;5030401;28;20482;-61
2023/03/11 02:35:02;;;;;;;11.13;6.85;;;;;;;3.59;83.26;99321.13;5031221;28;20061;-60
2023/03/11 02:37:29;;;;;;;9.80;7.18;;;;;;;3.59;83.16;99315.59;5030593;28;20053;-61
2023/03/11 02:40:35;;;;;;;10.10;7.32;;;;;;;3.55;82.89;99313.72;5031294;28;20392;-61
2023/03/11 02:43:09;;;;;;;12.38;7.32;;;;;;;3.55;82.79;99324.72;5031261;28;20056;-61
2023/03/11 02:45:38;;;;;;;10.65;6.90;;;;;;;3.46;82.87;99321.81;5030376;28;20060;-61
2023/03/11 02:48:08;;;;;;;10.90;6.20;;;;;;;3.50;83.43;99328.38;5030458;28;20067;-61
2023/03/11 02:50:36;;;;;;;9.67;5.47;;;;;;;3.48;82.42;99330.59;5031624;28;20053;-61
2023/03/11 02:53:03;;;;;;;9.50;5.50;;;;;;;3.43;82.52;99333.44;5031784;28;20507;-61
2023/03/11 02:55:31;;;;;;;7.75;5.50;;;;;;;3.43;82.42;99336.19;5031327;28;20049;-61
2023/03/11 02:57:58;;;;;;;8.48;5.40;;;;;;;3.39;82.61;99341.47;5031286;28;20057;-61
2023/03/11 03:00:27;;;;;;;12.38;6.72;;;;;;;3.38;82.60;99339.00;5030379;27;20076;-61
2023/03/11 03:02:55;;;;;;;13.25;7.10;;;;;;;3.36;81.96;99342.06;5026300;28;20049;-61
2023/03/11 03:05:22;;;;;;;8.00;5.35;;;;;;;3.31;81.25;99339.34;5031378;28;20053;-61
2023/03/11 03:07:51;;;;;;;7.43;4.80;;;;;;;3.29;82.19;99341.59;5031152;28;20060;-61
2023/03/11 03:10:19;;;;;;;7.30;4.97;;;;;;;3.32;81.54;99337.41;5030452;28;20067;-61
2023/03/11 03:12:50;;;;;;;10.40;5.43;;;;;;;3.25;80.85;99346.88;5027120;27;20507;-60
2023/03/11 03:15:17;;;;;;;11.30;5.63;;;;;;;3.22;81.73;99366.72;5028867;28;20360;-61
2023/03/11 03:17:46;;;;;;;10.68;6.88;;;;;;;3.21;82.14;99367.00;5029161;28;20057;-61
2023/03/11 03:20:14;;;;;;;10.82;6.90;;;;;;;3.20;82.49;99373.63;5031100;28;20058;-61
2023/03/11 03:22:42;;;;;;;8.15;5.85;;;;;;;3.16;82.45;99370.63;5030707;28;20053;-61
2023/03/11 03:25:10;;;;;;;12.88;5.88;;;;;;;3.21;81.33;99373.34;5030786;28;20049;-60
2023/03/11 03:27:39;;;;;;;9.73;6.20;;;;;;;3.19;82.04;99367.31;5030785;28;20404;-61
2023/03/11 03:30:07;;;;;;;9.13;5.60;;;;;;;3.22;82.36;99369.47;5029914;27;20053;-61
2023/03/11 03:32:35;;;;;;;14.68;6.15;;;;;;;3.18;81.35;99376.66;5030631;28;20050;-61
2023/03/11 03:35:04;;;;;;;7.72;5.45;;;;;;;3.21;82.45;99372.50;5031700;28;20053;-61
2023/03/11 03:37:33;;;;;;;9.95;5.82;;;;;;;3.19;81.14;99371.97;5030386;28;20064;-61
2023/03/11 03:40:01;;;;;;;10.17;6.47;;;;;;;3.17;80.58;99376.94;5031026;28;20062;-61
2023/03/11 03:42:28;;;;;;;11.02;5.90;;;;;;;3.19;80.80;99381.06;5030239;28;20412;-61
2023/03/11 03:44:56;;;;;;;9.20;6.30;;;;;;;3.17;82.33;99383.28;5028929;28;20045;-61
2023/03/11 03:47:23;;;;;;;11.95;5.45;;;;;;;3.13;80.73;99379.47;5030339;28;20064;-61
2023/03/11 03:49:50;;;;;;;10.38;5.85;;;;;;;3.18;81.88;99384.09;5031022;28;20073;-61
2023/03/11 03:52:19;;;;;;;11.70;5.60;;;;;;;3.19;81.12;99386.56;5030285;28;20056;-62
2023/03/11 03:54:46;;;;;;;11.50;6.40;;;;;;;3.23;81.19;99384.88;5030328;28;20061;-62
2023/03/11 03:57:13;;;;;;;11.40;6.38;;;;;;;3.25;81.29;99390.91;5030435;28;20057;-61
2023/03/11 03:59:40;;;;;;;10.88;6.28;;;;;;;3.30;80.75;99394.69;5029444;27;20466;-62
2023/03/11 04:02:08;;;;;;;9.63;5.80;;;;;;;3.28;80.16;99389.50;5030370;28;20060;-62
2023/03/11 04:04:35;;;;;;;11.95;6.20;;;;;;;3.29;81.63;99401.31;5030421;28;20480;-61
2023/03/11 04:07:04;;;;;;;12.25;6.70;;;;;;;3.32;80.46;99412.56;5030112;28;20050;-61
2023/03/11 04:09:33;;;;;;;9.50;6.00;;;;;;;3.33;81.11;99416.13;5030388;28;20057;-61
2023/03/11 04:12:01;;;;;;;11.82;6.10;;;;;;;3.39;80.24;99414.97;5030028;28;20491;-62
2023/03/11 04:14:28;;;;;;;8.00;5.85;;;;;;;3.42;80.61;99417.13;5030119;28;20076;-61
2023/03/11 04:16:56;;;;;;;11.35;6.65;;;;;;;3.43;80.96;99416.81;5029454;27;20050;-61
2023/03/11 04:19:24;;;;;;;9.95;5.70;;;;;;;3.45;81.21;99422.06;5030275;28;20061;-61
2023/03/11 04:21:51;;;;;;;11.65;5.70;;;;;;;3.47;81.57;99419.00;5030144;28;20436;-61
2023/03/11 04:24:18;;;;;;;8.73;5.47;;;;;;;3.41;80.32;99423.75;5030020;28;20399;-61
2023/03/11 04:26:47;;;;;;;12.40;5.70;;;;;;;3.44;80.70;99425.91;5030333;28;20388;-61
2023/03/11 04:29:14;;;;;;;11.02;6.00;;;;;;;3.40;81.38;99428.44;5029616;28;20065;-62
2023/03/11 04:31:42;;;;;;;9.23;4.97;;;;;;;3.43;81.37;99435.28;5028692;27;20072;-61
2023/03/11 04:34:09;;;;;;;11.80;5.60;;;;;;;3.47;80.99;99439.09;5030084;28;20514;-61
2023/03/11 04:36:37;;;;;;;13.02;4.88;;;;;;;3.39;81.43;99434.22;5030085;28;20072;-61
2023/03/11 04:39:04;;;;;;;11.70;4.68;;;;;;;3.40;80.99;99444.97;5030318;28;20057;-61
2023/03/11 04:41:32;;;;;;;9.00;4.47;;;;;;;3.44;80.33;99431.41;5029748;28;20064;-61
2023/03/11 04:44:00;;;;;;;10.63;4.85;;;;;;;3.44;81.37;99442.41;5029234;28;20045;-61
2023/03/11 04:46:28;;;;;;;11.10;4.80;;;;;;;3.41;80.68;99446.59;5028233;28;20064;-61
2023/03/11 04:48:55;;;;;;;13.80;5.60;;;;;;;3.36;80.12;99443.06;5030350;28;20064;-64
2023/03/11 04:51:22;;;;;;;10.40;5.30;;;;;;;3.40;80.41;99452.38;5029612;28;20053;-61
2023/03/11 04:53:49;;;;;;;11.75;5.82;;;;;;;3.43;81.30;99457.31;5029543;28;20060;-61
2023/03/11 04:56:20;;;;;;;9.05;5.05;;;;;;;3.43;81.90;99462.81;5029620;28;20064;-61
2023/03/11 04:58:47;;;;;;;9.35;5.03;;;;;;;3.42;81.15;99462.00;5029768;28;20053;-61
2023/03/11 05:01:16;;;;;;;7.65;4.57;;;;;;;3.41;80.32;99474.09;5029163;28;20053;-61
2023/03/11 05:03:43;;;;;;;8.15;4.45;;;;;;;3.40;81.66;99474.38;5029470;28;20056;-60
2023/03/11 05:06:11;;;;;;;11.80;4.82;;;;;;;3.35;80.95;99471.69;5029499;28;20050;-60
2023/03/11 05:08:39;;;;;;;12.55;4.60;;;;;;;3.36;80.76;99474.19;5029494;28;20057;-61
2023/03/11 05:11:07;;;;;;;9.95;4.95;;;;;;;3.35;81.37;99478.03;5029160;28;20491;-60
2023/03/11 05:13:35;;;;;;;8.77;4.63;;;;;;;3.29;80.66;99481.13;5029303;28;20384;-60
2023/03/11 05:16:02;;;;;;;7.32;4.50;;;;;;;3.31;80.69;99478.91;5027956;28;20056;-60
2023/03/11 05:18:31;;;;;;;11.95;4.55;;;;;;;3.32;80.11;99478.63;5030081;28;20077;-60
2023/03/11 05:20:58;;;;;;;7.23;4.80;;;;;;;3.32;80.09;99480.53;5029545;28;20053;-60
2023/03/11 05:23:25;;;;;;;7.32;4.20;;;;;;;3.29;80.55;99479.19;5029172;28;20494;-60
2023/03/11 05:25:53;;;;;;;7.88;4.88;;;;;;;3.28;81.08;99488.56;5029391;28;20054;-60
2023/03/11 05:28:20;;;;;;;9.43;4.90;;;;;;;3.24;81.17;99493.81;5029337;28;20423;-60
2023/03/11 05:30:47;;;;;;;7.60;4.15;;;;;;;3.21;80.13;99494.41;5028268;28;20064;-60
2023/03/11 05:33:17;;;;;;;10.00;4.57;;;;;;;3.20;80.08;99498.25;5029115;28;20494;-60
2023/03/11 05:35:46;;;;;;;8.43;4.53;;;;;;;3.19;80.37;99496.63;5029001;28;20061;-60
2023/03/11 05:38:13;;;;;;;11.57;4.75;;;;;;;3.17;81.10;99496.09;5029066;28;20058;-60
2023/03/11 05:40:41;;;;;;;9.77;4.03;;;;;;;3.17;80.11;99500.75;5028960;28;20058;-60
2023/03/11 05:43:08;;;;;;;8.15;3.90;;;;;;;3.17;80.37;99500.75;5028673;28;20404;-60
2023/03/11 05:45:35;;;;;;;6.60;3.58;;;;;;;3.15;80.97;99506.56;5027646;28;20064;-61
2023/03/11 05:48:03;;;;;;;6.28;3.63;;;;;;;3.12;80.61;99506.31;5028998;28;20399;-61
2023/03/11 05:50:30;;;;;;;11.65;4.65;;;;;;;3.14;81.03;99506.84;5029800;28;20053;-61
2023/03/11 05:52:58;;;;;;;8.48;4.38;;;;;;;3.17;80.47;99509.84;5028625;28;20479;-61
2023/03/11 05:55:29;;;;;;;10.70;4.40;;;;;;;3.13;80.50;99516.19;5028654;28;20507;-61
2023/03/11 05:57:59;;;;;;;10.70;4.00;;;;;;;3.15;79.67;99519.50;5029806;28;20057;-60
2023/03/11 06:00:28;;;;;;;8.68;3.67;;;;;;;3.17;79.91;99518.13;5028739;28;20060;-61
2023/03/11 06:02:55;;;;;;;8.35;4.53;;;;;;;3.17;78.85;99523.63;5028708;28;20054;-61
2023/03/11 06:05:22;;;;;;;9.98;3.67;;;;;;;3.20;78.50;99525.78;5028611;28;20050;-61
2023/03/11 06:07:50;;;;;;;8.68;3.42;;;;;;;3.24;79.48;99531.53;5029415;28;20081;-61
2023/03/11 06:10:18;;;;;;;9.25;4.00;;;;;;;3.35;79.42;99533.06;5028606;28;20065;-61
2023/03/11 06:12:46;;;;;;;7.22;4.03;;;;;;;3.53;79.14;99531.53;5031414;28;20046;-61
2023/03/11 06:15:13;;;;;;;7.60;3.90;;;;;;;3.65;80.03;99526.47;5027464;27;21652;-61
2023/03/11 06:17:40;;;;;;;8.05;3.67;;;;;;;3.79;79.31;99536.75;5034895;28;20064;-61
2023/03/11 06:20:09;;;;;;;7.28;4.00;;;;;;;3.74;79.16;99534.03;5050328;28;20057;-61
2023/03/11 06:22:37;;;;;;;8.82;3.55;;;;;;;3.82;79.24;99530.66;5027138;28;22000;-61
2023/03/11 06:25:04;;;;;;;8.98;3.90;;;;;;;3.85;79.41;99536.41;5025191;28;20045;-61
2023/03/11 06:27:33;;;;;;;9.23;4.28;;;;;;;3.78;78.52;99529.59;5028972;28;20052;-61
2023/03/11 06:30:00;;;;;;;10.35;4.10;;;;;;;3.82;78.55;99544.44;5029414;28;20053;-61
2023/03/11 06:32:28;;;;;;;9.02;4.20;;;;;;;3.82;77.80;99539.75;5022479;28;20053;-62
2023/03/11 06:34:55;;;;;;;7.68;3.70;;;;;;;3.84;78.32;99542.19;5028358;28;20053;-61
2023/03/11 06:37:25;;;;;;;7.38;3.50;;;;;;;3.81;78.14;99540.84;5031463;27;20056;-61
2023/03/11 06:39:53;;;;;;;7.55;4.07;;;;;;;3.79;77.03;99547.78;5028369;28;20076;-62
2023/03/11 06:42:22;;;;;;;7.75;3.70;;;;;;;3.80;76.59;99550.25;5025950;28;20060;-62
2023/03/11 06:44:51;;;;;;;8.70;3.83;;;;;;;3.81;77.25;99556.56;5025418;28;20111;-61
2023/03/11 06:47:18;;;;;;;7.18;3.55;;;;;;;3.81;76.32;99556.56;5107051;27;20413;-62
2023/03/11 06:49:45;;;;;;;10.70;4.05;;;;;;;3.82;77.21;99561.81;5030127;28;20053;-61
2023/03/11 06:52:12;;;;;;;7.07;3.92;;;;;;;3.75;76.17;99575.06;5029832;28;20060;-61
2023/03/11 06:54:40;;;;;;;8.15;4.32;;;;;;;3.80;76.71;99568.69;5030229;28;20487;-61
2023/03/11 06:57:07;;;;;;;7.28;3.97;;;;;;;4.00;77.17;99575.91;5030871;28;20157;-61
2023/03/11 06:59:35;;;;;;;10.20;3.97;;;;;;;4.20;76.51;99585.88;5026258;27;20061;-62
2023/03/11 07:02:05;;;;;;;8.02;3.88;;;;;;;4.41;75.71;99591.97;5039148;27;20046;-62
2023/03/11 07:04:33;;;;;;;15.35;4.43;;;;;;;4.64;75.42;99593.03;5031437;28;20057;-62
2023/03/11 07:07:00;;;;;;;10.65;3.78;;;;;;;5.45;74.49;99603.97;5027689;28;20419;-62
2023/03/11 07:09:28;;;;;;;7.50;4.10;;;;;;;5.60;73.68;99589.91;5030391;28;20056;-62
2023/03/11 07:11:55;;;;;;;6.28;3.70;;;;;;;5.82;73.51;99599.47;5031172;28;20060;-61
2023/03/11 07:14:22;;;;;;;6.05;3.42;;;;;;;5.82;73.22;99602.25;5024783;27;20049;-62
2023/03/11 07:16:50;;;;;;;5.45;3.20;;;;;;;5.80;72.51;99599.78;5024633;27;20050;-62
2023/03/11 07:19:18;;;;;;;8.35;3.80;;;;;;;5.88;72.36;99606.56;5031682;28;20057;-62
2023/03/11 07:21:46;;;;;;;8.98;4.45;;;;;;;6.60;71.17;99619.00;5030167;28;20050;-62
2023/03/11 07:24:13;;;;;;;8.52;4.38;;;;;;;8.64;69.92;99615.84;5029486;28;20061;-62
2023/03/11 07:26:42;;;;;;;6.13;2.95;;;;;;;9.47;68.15;99620.50;5030833;28;20534;-62
2023/03/11 07:29:10;;;;;;;7.68;3.38;;;;;;;9.83;66.06;99624.06;5029026;28;20480;-62
2023/03/11 07:31:37;;;;;;;6.95;2.95;;;;;;;9.49;65.70;99629.34;5047511;28;20446;-62
2023/03/11 07:34:10;;;;;;;10.85;5.72;;;;;;;10.31;62.58;99626.56;5032228;28;20041;-63
2023/03/11 07:36:40;;;;;;;11.70;4.40;;;;;;;11.91;61.93;99633.16;5030323;28;20593;-63
2023/03/11 07:39:08;;;;;;;10.50;3.17;;;;;;;13.52;61.96;99642.38;5030834;28;20067;-64
2023/03/11 07:41:36;;;;;;;8.85;3.03;;;;;;;14.73;59.94;99636.47;5030051;28;20488;-64
2023/03/11 07:44:04;;;;;;;7.00;3.35;;;;;;;15.62;55.88;99637.69;5026980;28;20052;-64
2023/03/11 07:46:32;;;;;;;9.95;3.25;;;;;;;16.55;55.62;99632.25;5028919;28;21096;-64
2023/03/11 07:49:00;;;;;;;9.57;3.25;;;;;;;17.09;51.24;99638.72;5030011;28;20068;-63
2023/03/11 07:51:29;;;;;;;7.78;2.63;;;;;;;17.68;50.16;99644.78;5027736;28;20385;-64
2023/03/11 07:53:59;;;;;;;6.15;2.10;;;;;;;18.18;46.08;99643.38;5022698;28;20057;-64
2023/03/11 07:56:28;;;;;;;5.68;2.00;;;;;;;18.42;49.25;99644.03;5023315;28;20045;-63
2023/03/11 07:58:57;;;;;;;5.95;2.35;;;;;;;19.16;47.71;99648.69;5037993;28;20045;-63
2023/03/11 08:01:29;;;;;;;5.05;2.13;;;;;;;18.72;48.16;99657.19;5035950;27;20054;-63
2023/03/11 08:03:57;;;;;;;5.93;1.98;;;;;;;17.96;45.07;99664.06;5027238;28;20053;-62
2023/03/11 08:06:28;;;;;;;5.83;2.00;;;;;;;18.40;45.51;99671.81;5027509;28;20377;-63
2023/03/11 08:08:55;;;;;;;4.57;2.45;;;;;;;19.06;46.94;99672.81;5018194;28;20167;-62
2023/03/11 08:11:24;;;;;;;6.80;2.20;;;;;;;20.07;45.76;99668.56;5026608;28;20045;-61
2023/03/11 08:13:52;;;;;;;5.82;2.13;;;;;;;20.87;42.16;99664.69;5026867;27;20072;-62
2023/03/11 08:16:21;;;;;;;4.72;2.38;;;;;;;21.37;44.08;99669.47;5027645;28;20060;-62
2023/03/11 08:18:50;;;;;;;3.70;1.58;;;;;;;21.49;39.82;99674.72;5054682;27;20049;-61
2023/03/11 08:21:20;;;;;;;4.00;2.28;;;;;;;21.73;40.71;99672.22;5026074;28;20050;-61
2023/03/11 08:23:48;;;;;;;5.90;2.00;;;;;;;22.09;41.87;99664.41;5026823;28;20049;-61
2023/03/11 08:26:17;;;;;;;4.28;1.88;;;;;;;22.83;42.14;99674.91;5028188;28;20403;-61
2023/03/11 08:28:47;;;;;;;6.20;1.88;;;;;;;23.42;38.86;99686.16;5027651;27;20061;-62
2023/03/11 08:31:14;;;;;;;;;;;;;;;23.35;31.82;99689.09;5025631;28;20053;-61
2023/03/11 08:33:42;;;;;;;6.13;2.13;;;;;;;23.81;38.50;99682.13;5027542;28;19921;-61
2023/03/11 08:36:10;;;;;;;4.97;1.60;;;;;;;24.19;34.85;99678.38;5026181;28;20053;-61
2023/03/11 08:38:37;;;;;;;5.13;2.28;;;;;;;24.95;34.92;99678.91;5027029;28;20057;-61
2023/03/11 08:41:05;;;;;;;8.38;2.40;;;;;;;25.34;35.23;99677.41;5027034;28;20053;-61
2023/03/11 08:43:32;;;;;;;7.57;2.17;;;;;;;26.17;33.48;99679.47;5025046;27;20046;-61
2023/03/11 08:46:02;;;;;;;5.18;2.20;;;;;;;26.12;30.51;99682.84;5027145;28;20495;-61
2023/03/11 08:48:29;;;;;;;6.22;1.90;;;;;;;26.51;33.17;99678.31;5028057;28;20045;-61
2023/03/11 08:50:57;;;;;;;5.07;2.38;;;;;;;26.84;36.01;99676.34;5025595;28;20057;-62
2023/03/11 08:53:24;;;;;;;4.40;1.90;;;;;;;27.14;31.88;99677.22;5026184;28;20073;-61
2023/03/11 08:55:52;;;;;;;4.78;2.35;;;;;;;26.44;36.65;99679.28;5024683;28;20049;-61
2023/03/11 08:58:20;;;;;;;4.97;1.90;;;;;;;27.34;33.46;99677.16;5023609;28;20069;-61
2023/03/11 09:00:47;;;;;;;3.08;1.60;;;;;;;28.02;29.97;99680.97;5024632;28;20065;-61
2023/03/11 09:03:16;;;;;;;4.97;1.95;;;;;;;28.53;32.27;99678.22;5024552;28;20059;-62
2023/03/11 09:05:43;;;;;;;4.35;1.52;;;;;;;28.41;34.44;99679.00;5026554;28;20068;-62
2023/03/11 09:08:10;;;;;;;4.85;2.00;;;;;;;28.86;29.55;99680.84;5027273;28;20046;-62
2023/03/11 09:10:38;;;;;;;4.30;1.65;;;;;;;29.22;27.16;99679.69;5024549;28;20397;-62
2023/03/11 09:13:05;;;;;;;4.78;1.70;;;;;;;29.61;31.12;99682.41;5022857;28;20053;-62
2023/03/11 09:15:33;;;;;;;5.07;1.70;;;;;;;30.16;30.30;99677.13;5026117;28;20080;-62
2023/03/11 09:18:00;;;;;;;3.83;1.45;;;;;;;30.62;31.06;99670.88;5026797;28;20053;-62
2023/03/11 09:20:29;;;;;;;4.38;2.03;;;;;;;30.42;25.14;99676.97;5026702;28;20389;-62
2023/03/11 09:22:56;;;;;;;5.07;3.03;;;;;;;30.04;28.84;99675.13;5027435;28;20411;-61
2023/03/11 09:25:24;;;;;;;5.22;2.05;;;;;;;29.81;23.32;99680.06;5026030;28;20045;-62
2023/03/11 09:27:51;;;;;;;5.65;1.70;;;;;;;26.46;28.98;99676.00;5023346;28;20054;-61
2023/03/11 09:30:18;;;;;;;5.63;1.63;;;;;;;23.77;29.96;99691.91;5027312;28;20057;-62
2023/03/11 09:32:46;;;;;;;4.68;1.63;;;;;;;24.86;34.04;99681.47;5039187;28;20408;-61
2023/03/11 09:35:13;;;;;;;5.90;1.70;;;;;;;27.37;30.82;99684.81;5022468;28;20049;-61
2023/03/11 09:37:42;;;;;;;4.00;1.70;;;;;;;28.61;28.75;99690.25;5027277;28;20057;-61
2023/03/11 09:40:13;;;;;;;2.55;1.40;;;;;;;28.33;27.87;99687.00;5056769;28;20049;-61
2023/03/11 09:42:47;;;;;;;4.72;1.45;;;;;;;25.91;28.65;99689.81;5024772;28;20064;-61
2023/03/11 09:45:18;;;;;;;3.10;1.10;;;;;;;24.30;29.59;99696.13;5021273;28;20050;-61
2023/03/11 09:48:00;;;;;;;3.33;1.42;;;;;;;24.54;29.78;99705.56;5030885;28;20056;-61
2023/03/11 09:50:31;;;;;;;3.05;1.33;;;;;;;22.17;30.01;99707.69;5031406;28;20049;-61
2023/03/11 09:53:22;;;;;;;5.28;1.30;;;;;;;20.62;32.29;99709.94;5030670;27;20054;-61
2023/03/11 09:55:53;;;;;;;3.10;1.30;;;;;;;19.10;35.61;99708.72;5028702;27;20057;-61
2023/03/11 09:58:31;;;;;;;3.53;1.17;;;;;;;18.38;36.96;99716.50;5028951;27;20049;-61
2023/03/11 10:00:58;;;;;;;4.60;1.25;;;;;;;19.26;34.93;99717.75;5029217;28;20086;-61
2023/03/11 10:03:31;;;;;;;4.57;1.30;;;;;;;18.13;33.63;99721.84;5030410;28;20045;-60
2023/03/11 10:06:06;;;;;;;6.85;1.33;;;;;;;17.37;38.62;99734.88;5026507;28;20050;-60
2023/03/11 10:08:43;;;;;;;4.32;1.23;;;;;;;18.03;36.88;99731.78;5029391;28;20046;-60
2023/03/11 10:11:25;;;;;;;2.75;1.30;;;;;;;20.09;32.93;99716.22;5030448;28;20484;-60
2023/03/11 10:14:03;;;;;;;4.53;1.35;;;;;;;24.66;30.46;99715.56;5028740;28;20061;-60
2023/03/11 10:16:42;;;;;;;4.88;1.40;;;;;;;26.67;27.68;99706.16;5039876;28;20072;-60
2023/03/11 10:19:15;;;;;;;;;;;;;;;27.57;21.85;99712.47;5032257;28;20045;-60
2023/03/11 10:21:52;;;;;;;4.07;1.25;;;;;;;24.34;29.82;99715.97;5031934;28;19932;-60
2023/03/11 10:24:36;;;;;;;2.33;1.10;;;;;;;21.73;29.37;99728.91;5037545;27;20506;-60
2023/03/11 10:27:09;;;;;;;4.45;2.50;;;;;;;20.55;32.47;99732.50;5021513;28;20053;-59
2023/03/11 10:29:46;;;;;;;3.10;1.30;;;;;;;20.18;35.87;99738.44;5035708;27;20045;-60
2023/03/11 10:32:17;;;;;;;2.80;1.35;;;;;;;21.54;33.83;99733.00;5025789;28;20072;-59
2023/03/11 10:34:49;;;;;;;5.20;1.23;;;;;;;23.84;29.22;99738.13;5015380;28;20568;-58
2023/03/11 10:37:19;;;;;;;5.60;1.55;;;;;;;21.25;30.92;99737.88;5029236;28;20041;-59
2023/03/11 10:39:48;;;;;;;5.28;1.88;;;;;;;19.79;37.47;99739.09;5029418;28;20057;-58
2023/03/11 10:42:21;;;;;;;3.17;1.03;;;;;;;18.47;32.28;99742.38;5028041;28;20054;-58
2023/03/11 10:44:48;;;;;;;3.92;1.13;;;;;;;18.51;39.04;99740.41;5030115;28;20057;-59
2023/03/11 10:47:18;;;;;;;4.10;1.13;;;;;;;22.87;34.07;99729.63;5028701;28;20049;-59
2023/03/11 10:49:46;;;;;;;5.10;1.50;;;;;;;25.61;31.36;99733.56;5027990;27;20053;-58
2023/03/11 10:52:14;;;;;;;5.38;1.30;;;;;;;28.00;30.33;99729.31;5038732;27;20049;-61
2023/03/11 10:54:45;;;;;;;3.45;1.25;;;;;;;29.62;23.88;99727.09;5029970;28;20053;-59
2023/03/11 10:57:24;;;;;;;3.55;1.10;;;;;;;29.60;19.80;99721.81;5029519;28;20499;-58
2023/03/11 10:59:52;;;;;;;;;;;;;;;29.21;21.00;99737.50;5023722;27;20083;-59
2023/03/11 11:02:25;;;;;;;3.60;1.10;;;;;;;28.66;23.39;99735.53;5027135;28;19928;-60
2023/03/11 11:05:05;;;;;;;3.60;1.30;;;;;;;28.29;20.43;99740.72;5019541;28;20533;-61
2023/03/11 11:07:34;;;;;;;2.45;0.90;;;;;;;25.48;23.04;99736.25;5029706;28;20404;-60
2023/03/11 11:10:17;;;;;;;4.03;1.30;;;;;;;23.18;22.85;99752.53;5029455;28;20045;-62
2023/03/11 11:12:59;;;;;;;4.75;1.10;;;;;;;21.64;26.51;99752.03;5027696;28;20056;-59
2023/03/11 11:15:29;;;;;;;4.07;1.10;;;;;;;21.39;29.06;99760.53;5023967;28;20069;-60
2023/03/11 11:18:01;;;;;;;3.40;1.30;;;;;;;23.01;26.45;99762.81;5029519;28;20057;-60
2023/03/11 11:20:30;;;;;;;3.03;1.20;;;;;;;23.70;22.82;99753.28;5027101;28;20050;-63
2023/03/11 11:22:59;;;;;;;2.40;1.30;;;;;;;22.91;26.05;99747.47;5027305;28;20139;-63
2023/03/11 11:25:28;;;;;;;;;;;;;;;25.52;23.36;99746.34;5030194;28;20420;-61
2023/03/11 11:27:59;;;;;;;3.50;1.48;;;;;;;25.77;20.19;99739.38;5027543;28;19921;-61
2023/03/11 11:30:27;;;;;;;2.03;0.95;;;;;;;26.89;21.78;99735.00;5027486;28;20079;-62
2023/03/11 11:32:54;;;;;;;3.15;1.10;;;;;;;27.83;18.51;99737.09;5026018;27;20060;-62
2023/03/11 11:35:24;;;;;;;5.57;1.38;;;;;;;28.63;19.34;99735.66;5030508;28;20057;-62
2023/03/11 11:37:52;;;;;;;;;;;;;;;27.83;18.87;99734.25;5031343;28;20506;-62
2023/03/11 11:40:26;;;;;;;4.22;1.08;;;;;;;25.81;21.00;99733.59;5031018;28;19921;-62
2023/03/11 11:42:59;;;;;;;3.38;1.17;;;;;;;24.06;22.85;99735.03;5029991;28;20053;-62
2023/03/11 11:45:32;;;;;;;2.38;1.35;;;;;;;25.89;19.69;99726.53;5030434;28;20057;-63